Time;durP1;ratioP1;P1;durP2;ratioP2;P2;SDS_P1;SDS_P2;PMS_P1;PMS_P2;Temp;Humidity;BMP_temperature;BMP_pressure;BME280_temperature;BME280_humidity;BME280_pressure;Samples;Min_cycle;Max_cycle;Signal;HPM_P1;HPM_P2
2022/07/20 00:00:37;;;;;;;8.93;4.80;;;24.40;91.90;;;;;;5074775;28;20504;-75
2022/07/20 00:03:08;;;;;;;10.77;5.57;;;24.40;91.70;;;;;;5074859;28;20044;-75
2022/07/20 00:05:34;;;;;;;7.28;4.78;;;24.40;91.40;;;;;;5090361;28;20475;-75
2022/07/20 00:07:59;;;;;;;7.07;4.70;;;24.40;91.10;;;;;;5073650;28;20472;-75
2022/07/20 00:13:10;;;;;;;11.50;5.13;;;24.40;91.10;;;;;;5074930;28;20120;-75
2022/07/20 00:15:36;;;;;;;8.60;5.18;;;24.30;91.00;;;;;;5074519;28;20123;-75
2022/07/20 00:18:02;;;;;;;7.03;4.30;;;24.30;91.10;;;;;;5073236;28;20459;-75
2022/07/20 00:20:27;;;;;;;8.38;4.80;;;24.30;91.10;;;;;;5090393;28;20044;-75
2022/07/20 00:22:59;;;;;;;9.27;4.97;;;24.20;91.20;;;;;;5073174;28;20060;-75
2022/07/20 00:25:26;;;;;;;8.50;4.93;;;24.20;91.30;;;;;;5073200;28;20052;-76
2022/07/20 00:27:51;;;;;;;8.25;4.78;;;24.10;91.40;;;;;;5074413;28;20040;-75
2022/07/20 00:30:17;;;;;;;8.63;4.85;;;24.10;91.50;;;;;;5074326;28;20036;-75
2022/07/20 00:32:43;;;;;;;9.13;4.93;;;24.10;91.50;;;;;;5073047;28;20391;-75
2022/07/20 00:35:11;;;;;;;12.68;5.32;;;24.00;91.60;;;;;;5074149;28;20115;-75
2022/07/20 00:37:37;;;;;;;9.43;4.78;;;23.90;92.10;;;;;;5074129;28;20052;-75
2022/07/20 00:40:04;;;;;;;7.30;5.25;;;23.90;91.90;;;;;;5074159;28;20043;-75
2022/07/20 00:42:30;;;;;;;9.00;5.15;;;23.80;92.00;;;;;;5089887;28;20399;-75
2022/07/20 00:44:56;;;;;;;8.63;4.80;;;23.80;92.00;;;;;;5089210;28;20124;-75
2022/07/20 00:47:21;;;;;;;6.82;5.03;;;23.70;92.10;;;;;;5073985;28;20079;-76
2022/07/20 00:49:47;;;;;;;8.43;4.75;;;23.70;91.80;;;;;;5072725;28;20083;-75
2022/07/20 00:52:13;;;;;;;9.20;5.20;;;23.60;92.30;;;;;;5073865;28;20136;-75
2022/07/20 00:54:39;;;;;;;9.27;4.80;;;23.60;92.20;;;;;;5073923;28;20045;-75
2022/07/20 00:57:06;;;;;;;11.30;4.90;;;23.50;92.30;;;;;;5089514;28;20110;-75
2022/07/20 00:59:31;;;;;;;12.73;5.07;;;23.50;92.40;;;;;;5073839;28;20040;-75
2022/07/20 01:01:57;;;;;;;7.18;5.03;;;23.40;92.40;;;;;;5073896;28;20038;-75
2022/07/20 01:04:23;;;;;;;9.60;5.25;;;23.40;92.30;;;;;;5089346;28;20052;-75
2022/07/20 01:06:49;;;;;;;9.88;4.40;;;23.40;92.40;;;;;;5073848;28;20071;-75
2022/07/20 01:09:17;;;;;;;12.80;5.38;;;23.40;92.50;;;;;;5073809;28;20072;-75
2022/07/20 01:11:44;;;;;;;7.65;4.90;;;23.30;92.50;;;;;;5073764;28;20041;-75
2022/07/20 01:14:11;;;;;;;11.02;4.68;;;23.30;92.90;;;;;;5073679;28;20048;-75
2022/07/20 01:16:38;;;;;;;10.10;5.57;;;23.20;93.10;;;;;;5073345;28;20124;-75
2022/07/20 01:19:04;;;;;;;9.65;5.68;;;23.20;93.10;;;;;;5073694;28;20040;-75
2022/07/20 01:21:30;;;;;;;9.23;4.78;;;23.10;93.10;;;;;;5070889;28;20061;-75
2022/07/20 01:24:03;;;;;;;8.45;5.07;;;23.10;93.30;;;;;;5073807;28;20135;-75
2022/07/20 01:26:28;;;;;;;12.95;5.45;;;23.00;93.30;;;;;;5089186;28;20049;-75
2022/07/20 01:28:54;;;;;;;6.63;4.88;;;23.00;93.30;;;;;;5073615;28;20048;-75
2022/07/20 01:31:20;;;;;;;9.45;4.82;;;22.90;93.40;;;;;;5073503;28;20048;-75
2022/07/20 01:33:45;;;;;;;6.82;4.80;;;22.90;93.60;;;;;;5072308;28;20037;-75
2022/07/20 01:36:11;;;;;;;7.85;4.60;;;22.80;93.60;;;;;;5073209;28;20365;-75
2022/07/20 01:38:36;;;;;;;10.10;5.25;;;22.80;93.60;;;;;;5089212;28;20049;-75
2022/07/20 01:41:02;;;;;;;8.75;5.25;;;22.80;93.60;;;;;;5088935;28;20369;-75
2022/07/20 01:43:28;;;;;;;7.70;4.90;;;22.80;93.70;;;;;;5073431;28;20048;-76
2022/07/20 01:45:53;;;;;;;10.15;4.95;;;22.70;93.50;;;;;;5073137;28;20094;-75
2022/07/20 01:48:19;;;;;;;7.10;4.47;;;22.70;93.40;;;;;;5089012;28;20086;-76
2022/07/20 01:50:44;;;;;;;11.98;5.55;;;22.70;93.50;;;;;;5073343;28;20493;-75
2022/07/20 01:53:10;;;;;;;8.52;4.90;;;22.70;93.60;;;;;;5073272;28;20036;-75
2022/07/20 01:55:36;;;;;;;7.47;4.95;;;22.70;93.50;;;;;;5073088;28;20492;-75
2022/07/20 01:58:01;;;;;;;8.98;5.15;;;22.70;93.50;;;;;;5076292;28;20047;-75
2022/07/20 02:00:27;;;;;;;7.30;5.35;;;22.70;93.60;;;;;;5093117;28;20040;-75
2022/07/20 02:02:53;;;;;;;13.13;5.32;;;22.60;93.60;;;;;;5075970;28;20048;-75
2022/07/20 02:05:19;;;;;;;13.85;5.47;;;22.60;93.50;;;;;;5093079;28;20040;-75
2022/07/20 02:07:45;;;;;;;12.93;5.75;;;22.60;93.80;;;;;;5092620;28;20449;-75
2022/07/20 02:10:13;;;;;;;6.95;5.38;;;22.50;93.70;;;;;;5077158;28;20119;-75
2022/07/20 02:12:40;;;;;;;10.70;5.25;;;22.60;93.60;;;;;;5076941;28;20561;-75
2022/07/20 02:15:08;;;;;;;10.30;5.18;;;22.50;93.50;;;;;;5076864;28;20094;-75
2022/07/20 02:17:33;;;;;;;8.73;4.93;;;22.50;93.50;;;;;;5076809;28;20047;-75
2022/07/20 02:19:59;;;;;;;9.45;6.00;;;22.50;93.50;;;;;;5076821;28;20041;-75
2022/07/20 02:22:31;;;;;;;10.02;5.18;;;22.50;93.30;;;;;;5090941;28;20057;-75
2022/07/20 02:24:57;;;;;;;10.17;5.20;;;22.50;93.40;;;;;;5092385;28;20068;-76
2022/07/20 02:27:22;;;;;;;11.50;5.68;;;22.50;93.40;;;;;;5092076;28;20388;-75
2022/07/20 02:29:48;;;;;;;10.93;5.28;;;22.50;93.40;;;;;;5076633;28;20121;-75
2022/07/20 02:32:13;;;;;;;9.15;5.85;;;22.50;93.30;;;;;;5076653;28;20380;-75
2022/07/20 02:34:39;;;;;;;8.57;5.00;;;22.50;93.40;;;;;;5092056;28;20044;-75
2022/07/20 02:37:05;;;;;;;10.38;5.32;;;22.50;93.50;;;;;;5091824;28;20052;-75
2022/07/20 02:39:30;;;;;;;8.75;5.20;;;22.50;93.30;;;;;;5076085;28;20045;-75
2022/07/20 02:41:56;;;;;;;14.68;5.53;;;22.50;93.40;;;;;;5076366;28;20045;-75
2022/07/20 02:44:22;;;;;;;7.15;5.57;;;22.50;93.40;;;;;;5076364;28;20521;-75
2022/07/20 02:46:47;;;;;;;6.85;4.55;;;22.50;93.50;;;;;;5092035;28;20083;-76
2022/07/20 02:49:13;;;;;;;9.98;5.28;;;22.40;93.40;;;;;;5091792;28;20052;-75
2022/07/20 02:51:38;;;;;;;7.65;4.65;;;22.40;93.30;;;;;;5076292;28;20040;-75
2022/07/20 02:54:05;;;;;;;11.55;4.95;;;22.40;93.40;;;;;;5074870;28;20051;-75
2022/07/20 02:56:30;;;;;;;9.32;5.28;;;22.40;93.40;;;;;;5091712;28;20395;-75
2022/07/20 02:58:56;;;;;;;7.45;4.90;;;22.40;93.40;;;;;;5075798;28;20464;-75
2022/07/20 03:01:22;;;;;;;9.52;6.25;;;22.40;93.40;;;;;;5076105;28;20056;-75
2022/07/20 03:03:47;;;;;;;10.68;4.95;;;22.40;93.30;;;;;;5075834;28;20174;-75
2022/07/20 03:06:13;;;;;;;8.93;4.97;;;22.40;93.30;;;;;;5075959;28;20503;-75
2022/07/20 03:08:38;;;;;;;7.90;5.22;;;22.30;93.30;;;;;;5075482;28;20040;-75
2022/07/20 03:11:04;;;;;;;8.85;5.00;;;22.30;93.40;;;;;;5075900;28;20055;-75
2022/07/20 03:13:30;;;;;;;8.10;5.05;;;22.30;93.30;;;;;;5075799;28;20043;-75
2022/07/20 03:15:55;;;;;;;7.38;5.00;;;22.30;93.40;;;;;;5075561;28;20052;-75
2022/07/20 03:18:21;;;;;;;9.77;5.10;;;22.30;93.10;;;;;;5091467;28;20056;-75
2022/07/20 03:20:47;;;;;;;8.32;4.80;;;22.30;93.20;;;;;;5075488;28;20369;-75
2022/07/20 03:23:12;;;;;;;8.05;5.63;;;22.30;93.30;;;;;;5090514;28;20057;-75
2022/07/20 03:25:38;;;;;;;8.52;4.97;;;22.30;93.30;;;;;;5073480;28;20124;-75
2022/07/20 03:28:04;;;;;;;7.88;5.38;;;22.30;93.30;;;;;;5074713;28;20045;-75
2022/07/20 03:30:30;;;;;;;7.28;5.05;;;22.20;93.30;;;;;;5072685;28;20059;-75
2022/07/20 03:32:55;;;;;;;7.05;4.93;;;22.20;93.40;;;;;;5074856;28;20040;-75
2022/07/20 03:35:22;;;;;;;7.43;4.85;;;22.20;93.60;;;;;;5075278;28;20094;-75
2022/07/20 03:37:47;;;;;;;8.05;5.60;;;22.20;93.60;;;;;;5073797;28;20393;-75
2022/07/20 03:40:13;;;;;;;9.13;4.97;;;22.10;93.50;;;;;;5090703;28;20056;-75
2022/07/20 03:42:39;;;;;;;16.58;5.18;;;22.10;93.60;;;;;;5074925;28;20058;-75
2022/07/20 03:45:06;;;;;;;9.63;5.15;;;22.10;93.70;;;;;;5073972;28;20430;-75
2022/07/20 03:47:33;;;;;;;7.70;5.47;;;22.10;93.50;;;;;;5073876;28;20055;-75
2022/07/20 03:49:58;;;;;;;9.45;4.97;;;22.10;93.50;;;;;;5073627;28;20049;-75
2022/07/20 03:52:24;;;;;;;9.32;5.10;;;22.10;93.50;;;;;;5075072;28;20045;-75
2022/07/20 03:54:50;;;;;;;10.23;5.30;;;22.10;93.50;;;;;;5090369;28;20048;-75
2022/07/20 03:57:15;;;;;;;7.43;4.82;;;22.10;94.00;;;;;;5090177;28;20059;-75
2022/07/20 03:59:41;;;;;;;6.25;5.05;;;22.10;94.50;;;;;;5073681;28;20048;-75
2022/07/20 04:02:07;;;;;;;8.88;5.00;;;22.10;94.60;;;;;;5073428;28;20494;-75
2022/07/20 04:04:32;;;;;;;7.85;5.43;;;22.00;94.40;;;;;;5074801;28;20127;-75
2022/07/20 04:06:58;;;;;;;9.02;6.00;;;22.00;94.30;;;;;;5090771;28;20051;-75
2022/07/20 04:12:10;;;;;;;9.00;5.22;;;22.00;94.50;;;;;;5074613;28;20190;-75
2022/07/20 04:14:36;;;;;;;10.57;5.35;;;22.10;94.10;;;;;;5073584;28;20040;-75
2022/07/20 04:17:02;;;;;;;10.55;5.20;;;22.00;94.00;;;;;;5074325;28;20380;-75
2022/07/20 04:19:28;;;;;;;8.07;5.72;;;22.10;93.90;;;;;;5073434;28;20471;-75
2022/07/20 04:21:55;;;;;;;8.27;5.50;;;22.10;93.80;;;;;;5074017;28;20491;-75
2022/07/20 04:24:22;;;;;;;10.23;5.57;;;22.10;93.80;;;;;;5072939;28;20044;-75
2022/07/20 04:26:47;;;;;;;7.93;5.05;;;22.20;94.00;;;;;;5072887;28;20080;-75
2022/07/20 04:29:13;;;;;;;8.27;5.03;;;22.20;93.80;;;;;;5074086;28;20137;-75
2022/07/20 04:31:38;;;;;;;7.20;4.70;;;22.20;93.70;;;;;;5089792;28;20369;-75
2022/07/20 04:34:04;;;;;;;8.48;5.32;;;22.20;93.70;;;;;;5074011;28;20056;-75
2022/07/20 04:36:30;;;;;;;10.00;5.25;;;22.30;93.60;;;;;;5089565;28;20505;-75
2022/07/20 04:38:55;;;;;;;8.52;5.18;;;22.30;93.70;;;;;;5073899;28;20120;-75
2022/07/20 04:41:21;;;;;;;10.85;5.22;;;22.30;93.80;;;;;;5072626;28;20131;-75
2022/07/20 04:43:46;;;;;;;7.47;5.03;;;22.40;93.80;;;;;;5073994;28;20036;-75
2022/07/20 04:46:12;;;;;;;6.32;5.38;;;22.40;93.80;;;;;;5074063;28;20503;-75
2022/07/20 04:48:38;;;;;;;7.38;6.10;;;22.40;93.70;;;;;;5072942;28;20049;-75
2022/07/20 04:51:03;;;;;;;8.75;5.43;;;22.40;93.90;;;;;;5073669;28;20049;-75
2022/07/20 04:53:29;;;;;;;7.70;5.50;;;22.50;94.10;;;;;;5089274;28;20534;-75
2022/07/20 04:55:55;;;;;;;9.65;5.18;;;22.60;94.00;;;;;;5072395;28;20049;-75
2022/07/20 04:58:20;;;;;;;10.05;5.85;;;22.60;94.30;;;;;;5073866;28;20040;-75
2022/07/20 05:00:46;;;;;;;8.32;5.70;;;22.60;94.40;;;;;;5073795;28;20036;-75
2022/07/20 05:03:11;;;;;;;20.77;7.35;;;22.60;94.00;;;;;;5073857;28;20040;-75
2022/07/20 05:05:37;;;;;;;10.02;5.78;;;22.70;93.80;;;;;;5089128;28;20158;-75
2022/07/20 05:08:03;;;;;;;9.48;6.05;;;22.70;94.20;;;;;;5073720;28;20044;-75
2022/07/20 05:10:29;;;;;;;8.25;5.63;;;22.80;94.20;;;;;;5073795;28;20032;-75
2022/07/20 05:12:54;;;;;;;12.48;5.43;;;22.70;94.40;;;;;;5073803;28;20045;-75
2022/07/20 05:15:23;;;;;;;8.25;5.75;;;22.70;94.90;;;;;;5089123;28;20059;-75
2022/07/20 05:17:49;;;;;;;8.43;5.53;;;22.70;94.70;;;;;;5073611;28;20060;-75
2022/07/20 05:20:15;;;;;;;6.63;5.10;;;22.80;95.00;;;;;;5089262;28;20047;-75
2022/07/20 05:22:40;;;;;;;8.63;5.55;;;22.80;95.30;;;;;;5073103;28;20053;-75
2022/07/20 05:25:06;;;;;;;11.93;5.50;;;22.70;95.50;;;;;;5089393;28;20053;-75
2022/07/20 05:27:32;;;;;;;10.75;5.75;;;22.80;95.40;;;;;;5089186;28;20051;-75
2022/07/20 05:29:58;;;;;;;7.30;5.47;;;22.80;95.70;;;;;;5073591;28;20072;-75
2022/07/20 05:32:23;;;;;;;9.90;6.05;;;22.80;95.40;;;;;;5093384;28;20391;-75
2022/07/20 05:34:49;;;;;;;10.57;5.38;;;22.90;95.50;;;;;;5077675;28;20048;-75
2022/07/20 05:37:14;;;;;;;10.38;5.55;;;22.90;95.90;;;;;;5077208;28;20087;-75
2022/07/20 05:39:40;;;;;;;8.30;6.25;;;23.00;95.70;;;;;;5093029;28;20399;-75
2022/07/20 05:42:06;;;;;;;10.00;6.15;;;23.00;96.30;;;;;;5076283;28;20064;-75
2022/07/20 05:44:31;;;;;;;9.50;5.57;;;23.10;96.40;;;;;;5077475;28;20036;-76
2022/07/20 05:46:57;;;;;;;8.00;5.70;;;23.10;96.20;;;;;;5092759;28;20044;-75
2022/07/20 05:49:22;;;;;;;9.13;5.80;;;23.20;96.40;;;;;;5075771;28;20472;-75
2022/07/20 05:51:48;;;;;;;10.18;6.70;;;23.40;96.30;;;;;;5077085;28;20076;-75
2022/07/20 05:54:14;;;;;;;9.05;5.88;;;23.40;96.60;;;;;;5077357;28;20032;-75
2022/07/20 05:56:40;;;;;;;9.82;5.80;;;23.60;96.40;;;;;;5075783;28;20051;-75
2022/07/20 05:59:05;;;;;;;9.60;5.68;;;23.70;96.60;;;;;;5077187;28;20051;-75
2022/07/20 06:01:31;;;;;;;10.02;5.97;;;23.70;96.80;;;;;;5075957;28;20478;-74
2022/07/20 06:03:57;;;;;;;7.85;6.13;;;23.80;97.40;;;;;;5075866;28;20060;-75
2022/07/20 06:06:23;;;;;;;11.77;6.32;;;23.90;97.10;;;;;;5092786;28;20659;-75
2022/07/20 06:08:48;;;;;;;8.30;5.82;;;24.10;97.20;;;;;;5077074;28;20140;-75
2022/07/20 06:11:14;;;;;;;9.60;6.32;;;24.10;97.80;;;;;;5077042;28;20127;-75
2022/07/20 06:13:40;;;;;;;10.20;6.40;;;24.20;97.40;;;;;;5076958;28;20072;-75
2022/07/20 06:16:06;;;;;;;8.05;6.28;;;24.30;97.00;;;;;;5092193;28;20068;-74
2022/07/20 06:18:31;;;;;;;9.35;6.45;;;24.50;96.50;;;;;;5076646;28;20044;-75
2022/07/20 06:20:57;;;;;;;7.72;5.55;;;24.50;96.60;;;;;;5075488;28;20045;-75
2022/07/20 06:23:23;;;;;;;7.60;5.25;;;24.60;97.00;;;;;;5092032;28;20518;-75
2022/07/20 06:25:48;;;;;;;9.75;6.40;;;24.80;96.80;;;;;;5077048;28;20606;-75
2022/07/20 06:28:14;;;;;;;7.13;5.95;;;25.00;96.00;;;;;;5076568;28;20040;-75
2022/07/20 06:30:39;;;;;;;8.50;5.93;;;25.10;96.00;;;;;;5081843;28;20051;-75
2022/07/20 06:33:05;;;;;;;12.60;6.38;;;25.20;96.50;;;;;;5079241;28;20071;-75
2022/07/20 06:35:31;;;;;;;9.10;5.70;;;25.20;95.90;;;;;;5075021;28;20090;-75
2022/07/20 06:37:57;;;;;;;9.63;6.68;;;25.40;96.70;;;;;;5074654;28;20079;-75
2022/07/20 06:40:23;;;;;;;9.68;6.43;;;25.50;95.70;;;;;;5075846;28;20051;-76
2022/07/20 06:42:48;;;;;;;11.48;6.55;;;25.60;95.80;;;;;;5083919;28;20048;-75
2022/07/20 06:45:14;;;;;;;7.47;6.30;;;25.60;94.90;;;;;;5075007;28;20045;-76
2022/07/20 06:47:40;;;;;;;15.68;6.63;;;25.80;95.30;;;;;;5074829;28;20415;-74
2022/07/20 06:50:06;;;;;;;8.27;5.90;;;25.90;94.80;;;;;;5074786;28;20131;-76
2022/07/20 06:52:33;;;;;;;7.63;6.20;;;26.00;94.90;;;;;;5074858;28;20052;-77
2022/07/20 06:54:58;;;;;;;15.68;6.57;;;25.90;94.50;;;;;;5074378;28;20429;-77
2022/07/20 06:57:24;;;;;;;10.48;7.25;;;26.10;95.10;;;;;;5074546;28;20140;-76
2022/07/20 06:59:50;;;;;;;8.52;6.97;;;26.20;94.30;;;;;;5074438;28;20416;-76
2022/07/20 07:02:16;;;;;;;14.20;7.15;;;26.40;94.70;;;;;;5075726;28;20064;-76
2022/07/20 07:04:42;;;;;;;9.55;6.82;;;26.40;94.50;;;;;;5074551;28;20109;-76
2022/07/20 07:07:07;;;;;;;9.30;7.10;;;26.60;94.60;;;;;;5074510;28;20414;-75
2022/07/20 07:09:33;;;;;;;10.07;7.55;;;26.70;94.50;;;;;;5074096;28;20102;-75
2022/07/20 07:11:59;;;;;;;9.82;6.70;;;26.70;94.10;;;;;;5085477;28;20055;-75
2022/07/20 07:14:25;;;;;;;12.38;7.35;;;26.90;94.70;;;;;;5074384;28;20052;-75
2022/07/20 07:16:52;;;;;;;10.95;6.95;;;26.90;95.10;;;;;;5074027;28;20162;-75
2022/07/20 07:19:18;;;;;;;15.68;7.78;;;27.00;95.10;;;;;;5075118;28;20396;-75
2022/07/20 07:21:44;;;;;;;12.75;7.72;;;27.20;94.80;;;;;;5074126;28;20483;-75
2022/07/20 07:24:09;;;;;;;13.75;8.80;;;27.20;95.20;;;;;;5087178;28;20532;-75
2022/07/20 07:26:35;;;;;;;12.77;8.88;;;27.30;95.60;;;;;;5095217;28;20040;-75
2022/07/20 07:29:00;;;;;;;16.10;9.35;;;27.30;95.80;;;;;;5094812;28;20042;-75
2022/07/20 07:31:26;;;;;;;14.63;9.93;;;27.40;96.40;;;;;;5093502;28;20482;-75
2022/07/20 07:33:52;;;;;;;16.52;10.15;;;27.50;96.70;;;;;;5095121;28;20044;-75
2022/07/20 07:36:17;;;;;;;14.00;10.55;;;27.60;97.00;;;;;;5095473;28;20079;-75
2022/07/20 07:38:43;;;;;;;15.98;10.07;;;27.60;97.30;;;;;;5093819;28;20090;-75
2022/07/20 07:41:09;;;;;;;14.52;10.35;;;27.70;98.00;;;;;;5090343;28;20521;-75
2022/07/20 07:43:35;;;;;;;20.75;12.10;;;27.90;98.30;;;;;;5093754;28;20040;-76
2022/07/20 07:46:00;;;;;;;16.90;11.40;;;28.00;98.60;;;;;;5110954;28;20105;-75
2022/07/20 07:48:26;;;;;;;18.85;11.73;;;28.20;99.40;;;;;;5094652;28;20048;-75
2022/07/20 07:50:52;;;;;;;16.25;12.48;;;28.40;99.10;;;;;;5090631;28;20046;-74
2022/07/20 07:53:18;;;;;;;20.77;12.90;;;28.40;98.70;;;;;;5094181;28;20036;-74
2022/07/20 07:55:43;;;;;;;20.40;14.95;;;28.60;99.30;;;;;;5093708;28;20407;-75
2022/07/20 07:58:12;;;;;;;26.38;14.50;;;28.80;99.50;;;;;;5093574;28;20061;-75
2022/07/20 08:00:38;;;;;;;18.42;14.95;;;28.80;99.20;;;;;;5094588;28;20100;-75
2022/07/20 08:03:05;;;;;;;20.48;14.60;;;29.00;99.30;;;;;;5094652;28;20055;-75
2022/07/20 08:05:30;;;;;;;20.92;15.05;;;29.10;99.30;;;;;;5093250;28;20044;-75
2022/07/20 08:07:56;;;;;;;20.05;15.05;;;29.00;98.60;;;;;;5094581;28;20036;-75
2022/07/20 08:10:22;;;;;;;22.80;15.50;;;29.10;98.60;;;;;;5098032;28;20044;-75
2022/07/20 08:12:48;;;;;;;21.58;14.65;;;29.30;99.10;;;;;;5083393;28;20112;-75
2022/07/20 08:15:14;;;;;;;21.80;15.77;;;29.40;99.20;;;;;;5073150;28;20507;-75
2022/07/20 08:17:45;;;;;;;20.23;15.00;;;29.50;99.10;;;;;;5074304;28;20044;-75
2022/07/20 08:20:11;;;;;;;25.73;17.00;;;29.40;99.70;;;;;;5073692;28;20502;-76
2022/07/20 08:22:37;;;;;;;26.02;17.48;;;29.30;99.60;;;;;;5084571;28;20139;-75
2022/07/20 08:25:02;;;;;;;22.67;17.75;;;29.50;99.90;;;;;;5073080;28;20163;-75
2022/07/20 08:27:28;;;;;;;27.23;18.90;;;29.50;99.90;;;;;;5072067;28;20491;-75
2022/07/20 08:29:58;;;;;;;25.73;18.95;;;29.60;99.90;;;;;;5073025;28;20395;-75
2022/07/20 08:32:27;;;;;;;30.23;22.77;;;29.80;99.90;;;;;;5072770;28;20487;-74
2022/07/20 08:34:53;;;;;;;28.67;22.75;;;29.70;99.90;;;;;;5073840;28;20042;-75
2022/07/20 08:37:18;;;;;;;28.92;22.83;;;29.90;99.90;;;;;;5089449;28;20120;-75
2022/07/20 08:39:44;;;;;;;30.85;23.45;;;30.00;99.90;;;;;;5072648;28;20056;-74
2022/07/20 08:42:11;;;;;;;44.08;27.65;;;30.10;99.90;;;;;;5072768;28;20135;-76
2022/07/20 08:44:39;;;;;;;40.00;28.10;;;30.10;99.90;;;;;;5072384;28;20567;-75
2022/07/20 08:47:05;;;;;;;38.80;26.15;;;30.10;99.90;;;;;;5072383;28;20045;-74
2022/07/20 08:49:32;;;;;;;35.72;28.48;;;30.20;99.90;;;;;;5072234;28;20055;-75
2022/07/20 08:51:58;;;;;;;42.88;28.60;;;30.20;99.90;;;;;;5072331;28;20058;-74
2022/07/20 08:54:25;;;;;;;33.13;27.90;;;30.20;99.90;;;;;;5072942;28;20047;-74
2022/07/20 08:56:51;;;;;;;36.80;27.98;;;30.10;99.90;;;;;;5072273;28;20499;-75
2022/07/20 08:59:16;;;;;;;42.65;28.10;;;30.20;99.90;;;;;;5073637;28;20111;-75
2022/07/20 09:02:07;;;;;;;42.45;31.00;;;30.20;99.90;;;;;;5073641;28;20048;-74
2022/07/20 09:05:06;;;;;;;45.85;29.65;;;30.30;99.90;;;;;;5073438;28;20048;-74
2022/07/20 09:07:37;;;;;;;40.28;29.95;;;30.40;99.90;;;;;;5073608;28;20040;-74
2022/07/20 09:10:05;;;;;;;44.13;30.25;;;30.30;99.90;;;;;;5073289;28;20475;-74
2022/07/20 09:12:30;;;;;;;42.88;30.60;;;30.50;99.90;;;;;;5072340;28;20460;-75
2022/07/20 09:14:56;;;;;;;46.83;32.97;;;30.50;99.90;;;;;;5073353;28;20535;-74
2022/07/20 09:17:23;;;;;;;44.65;30.88;;;30.30;99.50;;;;;;5073223;28;20044;-74
2022/07/20 09:19:56;;;;;;;44.83;32.58;;;30.40;99.90;;;;;;5073134;28;20391;-74
2022/07/20 09:22:33;;;;;;;43.42;31.67;;;30.40;99.90;;;;;;5073030;28;20056;-74
2022/07/20 09:25:14;;;;;;;46.92;34.42;;;30.40;99.90;;;;;;5073116;28;20088;-74
2022/07/20 09:27:41;;;;;;;48.17;36.25;;;30.30;99.90;;;;;;5072100;28;20048;-74
2022/07/20 09:30:10;;;;;;;48.97;34.83;;;30.10;99.90;;;;;;5071728;28;20415;-75
2022/07/20 09:33:11;;;;;;;48.53;35.55;;;30.20;99.90;;;;;;5071783;28;20080;-75
2022/07/20 09:35:37;;;;;;;48.15;34.55;;;29.80;99.80;;;;;;5011297;28;20057;-74
2022/07/20 09:38:05;;;;;;;49.65;33.97;;;29.60;99.90;;;;;;5059859;28;20065;-74
2022/07/20 09:40:42;;;;;;;46.45;33.17;;;29.70;99.90;;;;;;5073062;28;20507;-75
2022/07/20 09:43:23;;;;;;;38.50;31.77;;;29.70;99.90;;;;;;5071931;28;20056;-75
2022/07/20 09:45:49;;;;;;;44.75;34.17;;;29.80;99.90;;;;;;5071859;28;20372;-75
2022/07/20 09:48:15;;;;;;;40.58;32.17;;;29.80;99.90;;;;;;5073038;28;20524;-75
2022/07/20 09:50:44;;;;;;;44.03;30.92;;;29.90;99.90;;;;;;5073278;28;20036;-74
2022/07/20 09:53:11;;;;;;;43.13;29.45;;;30.10;99.90;;;;;;5071600;28;20467;-74
2022/07/20 09:55:38;;;;;;;41.83;27.88;;;30.20;99.90;;;;;;5073021;28;20044;-74
2022/07/20 09:58:05;;;;;;;37.50;26.90;;;30.20;99.90;;;;;;5071306;28;20053;-74
2022/07/20 10:00:34;;;;;;;39.33;25.83;;;30.20;99.90;;;;;;5073175;28;20045;-74
2022/07/20 10:03:01;;;;;;;34.83;26.10;;;30.20;99.50;;;;;;5071552;28;20048;-74
2022/07/20 10:05:36;;;;;;;37.35;26.60;;;30.30;99.10;;;;;;5072777;28;20066;-74
2022/07/20 10:08:06;;;;;;;35.45;26.02;;;30.40;99.30;;;;;;5072920;28;20048;-74
2022/07/20 10:10:32;;;;;;;37.58;26.10;;;30.30;97.40;;;;;;5072813;28;20053;-74
2022/07/20 10:12:59;;;;;;;29.02;25.50;;;30.20;97.50;;;;;;5073001;28;20065;-75
2022/07/20 10:15:42;;;;;;;37.17;25.90;;;30.30;96.50;;;;;;5072915;28;20069;-74
2022/07/20 10:18:10;;;;;;;36.58;24.83;;;30.40;96.60;;;;;;5073012;28;20483;-74
2022/07/20 10:20:37;;;;;;;29.02;22.50;;;30.40;94.90;;;;;;5076625;28;20091;-75
2022/07/20 10:23:14;;;;;;;29.85;21.25;;;30.40;93.10;;;;;;5076218;28;20060;-75
2022/07/20 10:25:45;;;;;;;27.73;20.23;;;30.30;92.30;;;;;;5076131;28;20075;-75
2022/07/20 10:28:24;;;;;;;24.55;19.83;;;30.30;92.70;;;;;;5075099;28;20090;-75
2022/07/20 10:30:53;;;;;;;23.55;19.08;;;30.40;92.50;;;;;;5076497;28;20135;-75
2022/07/20 10:33:21;;;;;;;23.63;19.92;;;30.30;91.60;;;;;;5076413;28;20032;-75
2022/07/20 10:35:48;;;;;;;26.63;19.42;;;30.20;91.50;;;;;;5076163;28;20296;-75
2022/07/20 10:38:21;;;;;;;26.75;19.55;;;30.30;91.80;;;;;;5074897;28;20040;-74
2022/07/20 10:44:20;;;;;;;23.35;19.80;;;30.50;91.30;;;;;;5075753;28;20063;-75
2022/07/20 10:46:47;;;;;;;24.52;19.95;;;30.60;91.20;;;;;;5076207;28;20041;-75
2022/07/20 10:49:13;;;;;;;25.20;19.35;;;30.70;92.60;;;;;;5076109;28;20039;-75
2022/07/20 10:51:39;;;;;;;25.77;19.17;;;30.60;92.70;;;;;;5076048;28;20052;-75
2022/07/20 10:54:36;;;;;;;26.00;18.60;;;30.60;92.10;;;;;;5086392;28;20044;-75
2022/07/20 10:57:03;;;;;;;24.77;18.45;;;30.60;91.10;;;;;;5074385;28;20056;-77
2022/07/20 10:59:28;;;;;;;23.20;16.92;;;30.70;91.00;;;;;;5075758;28;20037;-77
2022/07/20 11:01:54;;;;;;;22.60;17.90;;;30.60;91.20;;;;;;5075625;28;20167;-77
2022/07/20 11:04:21;;;;;;;22.20;17.80;;;30.70;91.40;;;;;;5074230;28;20044;-77
2022/07/20 11:06:48;;;;;;;21.75;14.82;;;30.80;91.00;;;;;;5075571;28;20099;-77
2022/07/20 11:09:15;;;;;;;23.45;15.57;;;30.70;90.70;;;;;;5075640;28;20044;-78
2022/07/20 11:11:41;;;;;;;19.75;15.25;;;30.70;90.80;;;;;;5075686;28;20045;-75
2022/07/20 11:14:10;;;;;;;17.83;14.77;;;30.70;90.60;;;;;;5075623;28;20058;-77
2022/07/20 11:16:37;;;;;;;20.63;14.73;;;31.00;90.70;;;;;;5075375;28;20094;-77
2022/07/20 11:19:05;;;;;;;20.77;14.90;;;31.00;89.50;;;;;;5090991;28;20105;-77
2022/07/20 11:21:40;;;;;;;17.35;14.30;;;31.00;89.40;;;;;;5090696;28;20052;-77
2022/07/20 11:24:27;;;;;;;20.15;15.63;;;31.00;88.20;;;;;;5075248;28;20053;-76
2022/07/20 11:26:54;;;;;;;20.67;16.00;;;31.00;88.70;;;;;;5075234;28;20040;-76
2022/07/20 11:29:23;;;;;;;22.30;15.48;;;31.00;89.00;;;;;;5074692;28;20158;-85
2022/07/20 11:31:49;;;;;;;21.13;15.60;;;31.10;87.40;;;;;;5075040;28;20381;-82
2022/07/20 11:34:15;;;;;;;22.50;15.52;;;31.20;88.40;;;;;;5073810;28;20510;-86
2022/07/20 11:36:40;;;;;;;19.98;15.27;;;31.10;87.70;;;;;;5073729;28;20239;-81
2022/07/20 11:39:09;;;;;;;23.48;14.88;;;30.90;88.60;;;;;;5075077;28;20072;-76
2022/07/20 11:41:41;;;;;;;23.45;15.70;;;31.00;86.20;;;;;;5074800;28;20407;-76
2022/07/20 11:44:15;;;;;;;21.85;14.40;;;31.20;87.30;;;;;;5075163;28;20051;-75
2022/07/20 11:46:43;;;;;;;18.65;14.73;;;31.20;88.60;;;;;;5075098;28;20037;-76
2022/07/20 11:49:14;;;;;;;20.65;15.63;;;31.20;87.50;;;;;;5079498;28;20506;-76
2022/07/20 11:51:50;;;;;;;20.33;16.75;;;31.10;85.80;;;;;;5080431;28;20040;-76
2022/07/20 11:54:23;;;;;;;24.38;17.95;;;31.20;86.50;;;;;;5074565;28;20048;-76
2022/07/20 11:56:51;;;;;;;24.60;19.42;;;31.20;82.20;;;;;;5074659;28;20183;-76
2022/07/20 11:59:16;;;;;;;25.15;19.08;;;31.20;83.90;;;;;;5073296;28;20057;-76
2022/07/20 12:01:43;;;;;;;23.58;18.95;;;31.10;84.80;;;;;;5074790;28;20052;-76
2022/07/20 12:04:12;;;;;;;21.58;17.48;;;31.10;83.90;;;;;;5074360;28;20391;-76
2022/07/20 12:06:41;;;;;;;21.13;16.02;;;31.00;83.80;;;;;;5073007;28;20411;-76
2022/07/20 12:09:11;;;;;;;22.92;17.17;;;31.20;84.60;;;;;;5074523;28;20114;-76
2022/07/20 12:12:05;;;;;;;23.63;17.33;;;31.20;83.70;;;;;;5074447;28;20033;-76
2022/07/20 12:14:39;;;;;;;21.65;16.17;;;31.20;84.40;;;;;;5071981;28;20579;-76
2022/07/20 12:17:16;;;;;;;18.08;15.85;;;31.30;85.30;;;;;;5073987;28;20395;-76
2022/07/20 12:19:44;;;;;;;16.95;13.75;;;31.30;83.90;;;;;;5074395;28;20044;-76
2022/07/20 12:22:26;;;;;;;18.65;13.98;;;31.40;83.80;;;;;;5072652;28;20134;-76
2022/07/20 12:24:54;;;;;;;20.73;14.38;;;31.50;83.70;;;;;;5074098;28;20060;-76
2022/07/20 12:27:22;;;;;;;16.80;13.77;;;31.40;83.00;;;;;;5089775;28;20391;-76
2022/07/20 12:29:47;;;;;;;23.55;15.10;;;31.50;81.40;;;;;;5072563;28;20052;-76
2022/07/20 12:32:16;;;;;;;19.73;15.48;;;31.40;80.50;;;;;;5074151;28;20048;-76
2022/07/20 12:34:49;;;;;;;16.85;15.05;;;31.30;80.30;;;;;;5074071;28;20080;-76
2022/07/20 12:37:15;;;;;;;16.90;14.90;;;31.50;80.80;;;;;;5073661;28;20566;-76
2022/07/20 12:39:47;;;;;;;17.98;14.73;;;31.50;80.60;;;;;;5073719;28;20142;-76
2022/07/20 12:42:12;;;;;;;;;;;31.40;79.50;;;;;;5089374;28;20514;-76
2022/07/20 12:44:38;;;;;;;16.38;13.10;;;31.40;79.50;;;;;;5073703;28;19925;-76
2022/07/20 12:47:05;;;;;;;17.35;12.70;;;31.50;80.20;;;;;;5073902;28;20036;-76